createdAt,value
2022-10-24T00:01:01.385Z,1.20
2022-10-24T00:03:27.825Z,1.65
2022-10-24T00:05:54.233Z,1.08
2022-10-24T00:08:20.646Z,1.00
2022-10-24T00:10:48.681Z,1.15
2022-10-24T00:13:16.190Z,1.30
2022-10-24T00:15:49.721Z,1.20
2022-10-24T00:18:16.899Z,1.00
2022-10-24T00:23:14.882Z,1.30
2022-10-24T00:25:41.240Z,1.15
2022-10-24T00:28:07.604Z,1.83
2022-10-24T00:30:34.067Z,1.20
2022-10-24T00:33:00.412Z,1.50
2022-10-24T00:35:26.945Z,0.90
2022-10-24T00:37:53.333Z,1.42
2022-10-24T00:40:20.575Z,1.48
2022-10-24T00:42:48.039Z,1.05
2022-10-24T00:45:33.366Z,1.30
2022-10-24T00:47:59.941Z,1.13
2022-10-24T00:50:26.404Z,1.27
2022-10-24T00:52:52.785Z,1.20
2022-10-24T00:55:19.289Z,1.00
2022-10-24T00:57:53.310Z,1.05
2022-10-24T01:00:26.655Z,1.27
2022-10-24T01:02:53.215Z,1.08
2022-10-24T01:05:23.947Z,1.25
2022-10-24T01:07:56.058Z,0.90
2022-10-24T01:10:22.626Z,1.40
2022-10-24T01:13:25.983Z,1.35
2022-10-24T01:16:16.296Z,0.98
2022-10-24T01:21:33.049Z,1.17
2022-10-24T01:24:36.727Z,1.20
2022-10-24T01:27:07.661Z,1.33
2022-10-24T01:29:47.937Z,1.17
2022-10-24T01:32:21.942Z,1.20
2022-10-24T01:34:50.924Z,1.30
2022-10-24T01:37:29.566Z,1.20
2022-10-24T01:40:18.807Z,1.15
2022-10-24T01:42:47.374Z,1.60
2022-10-24T01:45:19.200Z,1.55
2022-10-24T01:47:50.855Z,1.42
2022-10-24T01:50:20.095Z,1.30
2022-10-24T01:52:48.132Z,1.50
2022-10-24T01:55:14.551Z,1.40
2022-10-24T01:57:42.359Z,1.70
2022-10-24T02:00:15.356Z,1.30
2022-10-24T02:02:44.510Z,1.70
2022-10-24T02:05:31.770Z,1.25
2022-10-24T02:08:06.247Z,1.55
2022-10-24T02:10:38.310Z,1.27
2022-10-24T02:13:34.073Z,1.23
2022-10-24T02:16:02.496Z,1.23
2022-10-24T02:18:30.173Z,1.80
2022-10-24T02:21:20.417Z,1.40
2022-10-24T02:24:05.350Z,1.30
2022-10-24T02:26:41.621Z,1.10
2022-10-24T02:29:14.215Z,1.13
2022-10-24T02:31:47.065Z,1.27
2022-10-24T02:34:14.841Z,1.33
2022-10-24T02:36:43.882Z,1.50
2022-10-24T02:39:12.831Z,1.33
2022-10-24T02:41:42.775Z,1.10
2022-10-24T02:44:11.436Z,1.38
2022-10-24T02:46:38.781Z,1.40
2022-10-24T02:49:06.103Z,1.13
2022-10-24T02:51:37.456Z,1.13
2022-10-24T02:54:04.656Z,1.20
2022-10-24T02:56:32.003Z,0.98
2022-10-24T02:58:58.393Z,1.00
2022-10-24T03:01:24.995Z,1.15
2022-10-24T03:03:51.364Z,1.00
2022-10-24T03:06:18.549Z,1.17
2022-10-24T03:08:44.886Z,1.00
2022-10-24T03:11:11.641Z,1.08
2022-10-24T03:13:37.999Z,0.95
2022-10-24T03:16:06.695Z,0.98
2022-10-24T03:18:35.525Z,0.80
2022-10-24T03:21:01.829Z,1.10
2022-10-24T03:23:28.667Z,1.65
2022-10-24T03:25:56.513Z,1.05
2022-10-24T03:28:22.960Z,1.00
2022-10-24T03:30:49.442Z,0.80
2022-10-24T03:33:15.984Z,1.27
2022-10-24T03:35:42.740Z,1.20
2022-10-24T03:38:09.186Z,1.00
2022-10-24T03:40:35.996Z,0.98
2022-10-24T03:43:02.741Z,0.80
2022-10-24T03:45:29.118Z,1.02
2022-10-24T03:47:55.462Z,1.38
2022-10-24T03:50:21.834Z,1.20
2022-10-24T03:52:48.291Z,1.02
2022-10-24T03:55:14.644Z,1.30
2022-10-24T03:57:40.947Z,0.80
2022-10-24T04:00:07.865Z,1.85
2022-10-24T04:02:34.158Z,0.80
2022-10-24T04:05:01.098Z,1.30
2022-10-24T04:07:27.467Z,0.82
2022-10-24T04:09:53.821Z,1.00
2022-10-24T04:12:20.117Z,1.25
2022-10-24T04:14:46.663Z,0.73
2022-10-24T04:17:13.002Z,1.38
2022-10-24T04:19:39.323Z,0.77
2022-10-24T04:22:05.651Z,0.73
2022-10-24T04:24:32.084Z,1.10
2022-10-24T04:26:58.494Z,1.13
2022-10-24T04:29:24.840Z,0.95
2022-10-24T04:31:51.232Z,0.80
2022-10-24T04:34:17.882Z,0.80
2022-10-24T04:36:44.199Z,0.80
2022-10-24T04:39:10.659Z,0.73
2022-10-24T04:41:37.058Z,0.85
2022-10-24T04:44:03.720Z,0.65
2022-10-24T04:46:30.055Z,0.80
2022-10-24T04:48:56.416Z,0.75
2022-10-24T04:51:22.863Z,1.10
2022-10-24T04:53:50.199Z,0.75
2022-10-24T04:56:16.691Z,0.68
2022-10-24T04:58:42.992Z,1.02
2022-10-24T05:01:09.605Z,0.65
2022-10-24T05:03:36.041Z,1.00
2022-10-24T05:06:02.569Z,0.85
2022-10-24T05:08:28.893Z,0.85
2022-10-24T05:10:55.204Z,0.85
2022-10-24T05:13:21.605Z,0.90
2022-10-24T05:15:47.936Z,0.50
2022-10-24T05:18:14.361Z,0.60
2022-10-24T05:23:12.240Z,0.70
2022-10-24T05:25:38.706Z,0.55
2022-10-24T05:28:05.006Z,0.60
2022-10-24T05:30:31.666Z,0.70
2022-10-24T05:32:58.003Z,0.90
2022-10-24T05:35:24.334Z,0.70
2022-10-24T05:37:50.643Z,0.70
2022-10-24T05:40:17.118Z,0.40
2022-10-24T05:42:43.859Z,0.65
2022-10-24T05:45:11.141Z,0.90
2022-10-24T05:47:37.791Z,0.73
2022-10-24T05:50:05.428Z,0.75
2022-10-24T05:52:31.845Z,0.70
2022-10-24T05:55:08.248Z,0.50
2022-10-24T05:57:36.194Z,0.60
2022-10-24T06:00:03.651Z,0.57
2022-10-24T06:02:30.150Z,0.60
2022-10-24T06:04:58.655Z,0.65
2022-10-24T06:07:25.304Z,0.45
2022-10-24T06:09:51.602Z,0.80
2022-10-24T06:12:17.998Z,0.63
2022-10-24T06:14:44.757Z,0.73
2022-10-24T06:17:11.895Z,0.70
2022-10-24T06:19:39.610Z,1.13
2022-10-24T06:22:07.450Z,1.23
2022-10-24T06:24:38.088Z,0.65
2022-10-24T06:27:05.564Z,0.60
2022-10-24T06:29:32.544Z,0.80
2022-10-24T06:31:59.452Z,0.45
2022-10-24T06:34:26.023Z,0.75
2022-10-24T06:36:52.729Z,0.35
2022-10-24T06:39:19.257Z,0.55
2022-10-24T06:41:45.888Z,0.77
2022-10-24T06:44:12.366Z,0.47
2022-10-24T06:46:38.704Z,0.65
2022-10-24T06:49:05.058Z,0.70
2022-10-24T06:51:31.452Z,0.80
2022-10-24T06:53:58.602Z,0.55
2022-10-24T06:56:25.124Z,0.90
2022-10-24T06:58:51.545Z,0.73
2022-10-24T07:01:21.846Z,0.77
2022-10-24T07:03:48.990Z,0.68
2022-10-24T07:06:27.170Z,0.70
2022-10-24T07:08:56.516Z,1.13
2022-10-24T07:11:23.028Z,0.40
2022-10-24T07:13:49.761Z,0.70
2022-10-24T07:16:16.575Z,0.60
2022-10-24T07:18:43.592Z,0.45
2022-10-24T07:21:19.702Z,0.90
2022-10-24T07:23:46.253Z,1.30
2022-10-24T07:26:15.627Z,0.80
2022-10-24T07:28:44.501Z,1.48
2022-10-24T07:31:14.893Z,0.65
2022-10-24T07:33:41.711Z,0.65
2022-10-24T07:36:09.331Z,1.02
2022-10-24T07:38:37.067Z,0.73
2022-10-24T07:41:06.188Z,0.98
2022-10-24T07:43:33.007Z,0.57
2022-10-24T07:46:02.579Z,0.80
2022-10-24T07:48:28.981Z,0.88
2022-10-24T07:50:55.382Z,0.40
2022-10-24T07:53:21.708Z,0.80
2022-10-24T07:55:48.047Z,0.70
2022-10-24T07:58:14.666Z,0.77
2022-10-24T08:00:45.068Z,0.90
2022-10-24T08:03:11.847Z,0.60
2022-10-24T08:05:41.716Z,0.50
2022-10-24T08:10:54.880Z,0.93
2022-10-24T08:13:21.309Z,1.23
2022-10-24T08:15:47.647Z,1.35
2022-10-24T08:18:13.997Z,1.00
2022-10-24T08:20:40.691Z,1.13
2022-10-24T08:23:07.054Z,0.77
2022-10-24T08:25:33.454Z,0.88
2022-10-24T08:28:00.931Z,0.90
2022-10-24T08:30:29.232Z,0.60
2022-10-24T08:32:55.522Z,0.57
2022-10-24T08:35:21.929Z,1.13
2022-10-24T08:37:48.412Z,0.70
2022-10-24T08:40:17.565Z,0.73
2022-10-24T08:42:44.746Z,1.48
2022-10-24T08:45:26.616Z,0.77
2022-10-24T08:48:09.489Z,0.68
2022-10-24T08:50:38.079Z,0.60
2022-10-24T08:53:10.944Z,1.05
2022-10-24T08:55:49.754Z,0.60
2022-10-24T08:58:38.989Z,0.50
2022-10-24T09:01:13.482Z,1.23
2022-10-24T09:03:55.690Z,0.93
2022-10-24T09:06:26.314Z,1.10
2022-10-24T09:08:55.295Z,0.73
2022-10-24T09:11:54.372Z,1.05
2022-10-24T09:14:30.301Z,0.68
2022-10-24T09:17:01.763Z,0.95
2022-10-24T09:19:30.618Z,0.70
2022-10-24T09:21:59.258Z,0.50
2022-10-24T09:24:47.307Z,0.52
2022-10-24T09:27:41.024Z,0.60
2022-10-24T09:30:14.903Z,0.70
2022-10-24T09:32:42.527Z,0.68
2022-10-24T09:35:19.282Z,0.20
2022-10-24T09:37:57.316Z,0.60
2022-10-24T09:40:31.689Z,0.50
2022-10-24T09:43:19.526Z,0.50
2022-10-24T09:45:51.433Z,0.50
2022-10-24T09:48:19.839Z,0.40
2022-10-24T09:50:48.539Z,0.63
2022-10-24T09:53:26.070Z,0.52
2022-10-24T09:55:56.666Z,0.82
2022-10-24T09:58:32.437Z,0.70
2022-10-24T10:01:02.905Z,0.70
2022-10-24T10:03:29.854Z,0.50
2022-10-24T10:06:17.708Z,0.60
2022-10-24T10:08:51.353Z,0.57
2022-10-24T10:11:26.565Z,0.73
2022-10-24T10:13:55.087Z,0.60
2022-10-24T10:16:37.725Z,0.60
2022-10-24T10:19:15.690Z,0.82
2022-10-24T10:21:56.833Z,0.70
2022-10-24T10:26:54.041Z,0.80
2022-10-24T10:29:24.418Z,0.68
2022-10-24T10:32:00.002Z,0.98
2022-10-24T10:34:41.698Z,0.93
2022-10-24T10:37:30.052Z,0.60
2022-10-24T10:40:08.962Z,0.40
2022-10-24T10:43:00.866Z,0.60
2022-10-24T10:45:52.778Z,0.70
2022-10-24T10:49:00.106Z,0.60
2022-10-24T10:51:51.899Z,0.70
2022-10-24T10:54:30.394Z,0.85
2022-10-24T10:57:02.804Z,0.65
2022-10-24T10:59:41.443Z,0.40
2022-10-24T11:02:39.061Z,0.88
2022-10-24T11:05:20.282Z,0.50
2022-10-24T11:08:13.749Z,0.45
2022-10-24T11:11:11.427Z,0.68
2022-10-24T11:13:48.385Z,0.75
2022-10-24T11:16:22.257Z,1.10
2022-10-24T11:18:53.461Z,0.73
2022-10-24T11:21:23.445Z,0.63
2022-10-24T11:24:11.121Z,0.70
2022-10-24T11:26:52.014Z,0.38
2022-10-24T11:29:21.270Z,0.32
2022-10-24T11:35:02.367Z,0.68
2022-10-24T11:37:36.337Z,0.88
2022-10-24T11:40:14.486Z,0.82
2022-10-24T11:42:49.797Z,0.65
2022-10-24T11:45:21.781Z,0.82
2022-10-24T11:48:06.640Z,0.70
2022-10-24T11:50:39.604Z,0.98
2022-10-24T11:53:39.311Z,1.02
2022-10-24T11:56:34.561Z,0.20
2022-10-24T11:59:24.231Z,0.63
2022-10-24T12:01:59.369Z,0.50
2022-10-24T12:04:54.998Z,0.57
2022-10-24T12:07:27.288Z,0.35
2022-10-24T12:10:11.546Z,0.73
2022-10-24T12:13:02.652Z,0.80
2022-10-24T12:15:48.673Z,0.52
2022-10-24T12:18:28.627Z,0.70
2022-10-24T12:20:58.361Z,1.25
2022-10-24T12:23:27.574Z,0.40
2022-10-24T12:26:18.489Z,0.90
2022-10-24T12:29:05.758Z,0.32
2022-10-24T12:31:33.913Z,0.63
2022-10-24T12:34:15.811Z,0.80
2022-10-24T12:37:03.914Z,1.08
2022-10-24T12:39:33.244Z,0.70
2022-10-24T12:41:59.675Z,0.80
2022-10-24T12:44:50.697Z,0.70
2022-10-24T12:47:27.540Z,0.73
2022-10-24T12:49:54.189Z,1.10
2022-10-24T12:52:32.614Z,0.77
2022-10-24T12:54:59.796Z,0.88
2022-10-24T12:57:28.188Z,0.90
2022-10-24T12:59:58.226Z,0.40
2022-10-24T13:03:02.273Z,1.10
2022-10-24T13:06:02.381Z,1.10
2022-10-24T13:08:48.218Z,0.85
2022-10-24T13:11:44.634Z,0.70
2022-10-24T13:14:29.530Z,1.25
2022-10-24T13:17:07.973Z,0.70
2022-10-24T13:19:35.274Z,0.98
2022-10-24T13:22:02.389Z,1.73
2022-10-24T13:24:35.474Z,0.98
2022-10-24T13:27:12.664Z,0.70
2022-10-24T13:29:39.312Z,1.05
2022-10-24T13:32:05.595Z,1.15
2022-10-24T13:34:50.432Z,1.00
2022-10-24T13:37:35.755Z,0.65
2022-10-24T13:40:14.028Z,0.60
2022-10-24T13:42:44.140Z,1.05
2022-10-24T13:45:29.092Z,1.00
2022-10-24T13:48:16.354Z,0.95
2022-10-24T13:50:53.504Z,0.75
2022-10-24T13:53:30.306Z,1.30
2022-10-24T13:56:10.209Z,0.93
2022-10-24T13:58:44.349Z,0.88
2022-10-24T14:01:30.164Z,0.80
2022-10-24T14:03:58.873Z,1.42
2022-10-24T14:06:28.422Z,1.00
2022-10-24T14:09:06.466Z,0.70
2022-10-24T14:11:35.152Z,1.45
2022-10-24T14:14:07.097Z,0.90
2022-10-24T14:16:35.594Z,0.93
2022-10-24T14:19:27.131Z,1.23
2022-10-24T14:21:56.314Z,0.93
2022-10-24T14:24:23.066Z,0.75
2022-10-24T14:26:53.075Z,1.30
2022-10-24T14:29:27.521Z,0.70
2022-10-24T14:32:00.601Z,0.80
2022-10-24T14:34:31.420Z,1.17
2022-10-24T14:37:08.432Z,0.77
2022-10-24T14:39:35.035Z,0.98
2022-10-24T14:42:02.288Z,1.00
2022-10-24T14:44:29.128Z,0.70
2022-10-24T14:47:25.413Z,0.73
2022-10-24T14:49:53.037Z,0.63
2022-10-24T14:52:36.595Z,1.13
2022-10-24T14:55:08.065Z,0.88
2022-10-24T14:57:36.653Z,0.80
2022-10-24T15:00:18.067Z,0.70
2022-10-24T15:02:44.689Z,1.15
2022-10-24T15:05:20.459Z,0.50
2022-10-24T15:08:09.145Z,0.82
2022-10-24T15:10:35.174Z,0.70
2022-10-24T15:13:03.173Z,0.77
2022-10-24T15:15:46.029Z,0.40
2022-10-24T15:18:32.042Z,0.65
2022-10-24T15:21:07.664Z,0.60
2022-10-24T15:23:37.588Z,1.00
2022-10-24T15:26:17.507Z,0.47
2022-10-24T15:29:13.153Z,0.80
2022-10-24T15:31:48.136Z,0.50
2022-10-24T15:34:19.712Z,0.98
2022-10-24T15:36:47.793Z,1.00
2022-10-24T15:39:17.531Z,0.50
2022-10-24T15:41:44.023Z,0.82
2022-10-24T15:44:17.111Z,0.70
2022-10-24T15:46:45.180Z,0.75
2022-10-24T15:49:11.942Z,0.82
2022-10-24T15:51:42.569Z,0.80
2022-10-24T15:54:12.771Z,0.70
2022-10-24T15:56:39.133Z,0.75
2022-10-24T15:59:05.513Z,0.60
2022-10-24T16:01:37.302Z,0.50
2022-10-24T16:04:10.277Z,0.50
2022-10-24T16:06:36.977Z,0.70
2022-10-24T16:09:04.776Z,0.70
2022-10-24T16:11:31.984Z,0.55
2022-10-24T16:13:58.754Z,0.75
2022-10-24T16:16:25.573Z,0.60
2022-10-24T16:18:51.987Z,1.10
2022-10-24T16:21:21.037Z,1.10
2022-10-24T16:23:48.571Z,1.30
2022-10-24T16:26:16.006Z,1.20
2022-10-24T16:28:42.631Z,1.25
2022-10-24T16:31:09.384Z,1.35
2022-10-24T16:33:35.765Z,1.70
2022-10-24T16:36:02.089Z,1.80
2022-10-24T16:38:28.546Z,1.40
2022-10-24T16:40:54.888Z,1.80
2022-10-24T16:43:21.317Z,3.10
2022-10-24T16:46:00.220Z,3.08
2022-10-24T16:48:27.392Z,1.55
2022-10-24T16:50:54.474Z,1.25
2022-10-24T16:53:21.967Z,1.25
2022-10-24T16:55:50.156Z,1.50
2022-10-24T16:58:17.508Z,1.50
2022-10-24T17:00:44.716Z,1.45
2022-10-24T17:03:11.826Z,1.65
2022-10-24T17:05:38.618Z,1.60
2022-10-24T17:08:05.810Z,1.70
2022-10-24T17:10:32.434Z,2.10
2022-10-24T17:13:00.888Z,1.92
2022-10-24T17:15:27.223Z,1.75
2022-10-24T17:17:53.559Z,2.00
2022-10-24T17:20:19.937Z,2.03
2022-10-24T17:22:46.740Z,1.92
2022-10-24T17:25:18.478Z,1.45
2022-10-24T17:27:45.472Z,2.28
2022-10-24T17:30:15.976Z,2.00
2022-10-24T17:32:42.432Z,1.73
2022-10-24T17:35:12.052Z,1.90
2022-10-24T17:38:13.722Z,1.60
2022-10-24T17:40:45.865Z,1.83
2022-10-24T17:43:26.466Z,1.70
2022-10-24T17:45:55.135Z,1.63
2022-10-24T17:48:22.711Z,1.90
2022-10-24T17:50:58.901Z,2.08
2022-10-24T17:53:25.314Z,1.80
2022-10-24T17:55:51.662Z,1.80
2022-10-24T17:58:18.186Z,1.42
2022-10-24T18:00:44.836Z,1.33
2022-10-24T18:03:11.323Z,1.20
2022-10-24T18:05:38.746Z,1.20
2022-10-24T18:08:07.698Z,1.02
2022-10-24T18:10:35.888Z,1.13
2022-10-24T18:13:02.363Z,0.80
2022-10-24T18:15:28.762Z,1.10
2022-10-24T18:17:55.105Z,1.05
2022-10-24T18:20:21.444Z,1.10
2022-10-24T18:22:47.941Z,0.90
2022-10-24T18:25:18.743Z,1.15
2022-10-24T18:27:48.301Z,1.10
2022-10-24T18:30:14.994Z,1.15
2022-10-24T18:32:41.461Z,1.15
2022-10-24T18:35:08.355Z,1.88
2022-10-24T18:37:35.714Z,1.02
2022-10-24T18:40:04.424Z,1.42
2022-10-24T18:43:01.239Z,1.20
2022-10-24T18:45:28.094Z,1.00
2022-10-24T18:47:54.607Z,1.10
2022-10-24T18:50:25.045Z,1.13
2022-10-24T18:53:21.408Z,1.27
2022-10-24T18:55:49.092Z,2.42
2022-10-24T18:58:19.033Z,0.95
2022-10-24T19:00:46.823Z,1.10
2022-10-24T19:03:36.782Z,0.70
2022-10-24T19:06:17.103Z,1.00
2022-10-24T19:08:43.555Z,1.13
2022-10-24T19:11:14.021Z,1.02
2022-10-24T19:13:41.440Z,0.82
2022-10-24T19:16:14.589Z,0.80
2022-10-24T19:18:48.747Z,0.90
2022-10-24T19:21:15.119Z,1.30
2022-10-24T19:23:41.479Z,0.90
2022-10-24T19:26:07.854Z,0.70
2022-10-24T19:28:34.239Z,1.20
2022-10-24T19:31:00.584Z,1.00
2022-10-24T19:33:27.868Z,0.90
2022-10-24T19:35:54.352Z,1.42
2022-10-24T19:38:20.679Z,0.80
2022-10-24T19:40:51.354Z,0.93
2022-10-24T19:43:18.481Z,0.93
2022-10-24T19:45:50.181Z,0.90
2022-10-24T19:48:25.025Z,1.13
2022-10-24T19:50:51.556Z,0.90
2022-10-24T19:53:18.230Z,1.35
2022-10-24T19:55:44.827Z,1.13
2022-10-24T19:58:13.382Z,1.10
2022-10-24T20:00:40.701Z,1.05
2022-10-24T20:03:07.483Z,1.35
2022-10-24T20:05:34.034Z,0.90
2022-10-24T20:08:00.405Z,1.17
2022-10-24T20:10:26.724Z,1.15
2022-10-24T20:12:53.186Z,1.30
2022-10-24T20:15:19.627Z,1.48
2022-10-24T20:17:46.204Z,1.08
2022-10-24T20:20:13.028Z,1.13
2022-10-24T20:22:39.499Z,0.85
2022-10-24T20:25:06.937Z,0.90
2022-10-24T20:27:33.373Z,0.85
2022-10-24T20:29:59.753Z,0.85
2022-10-24T20:32:26.109Z,0.70
2022-10-24T20:34:52.483Z,1.20
2022-10-24T20:37:18.801Z,0.80
2022-10-24T20:39:45.136Z,0.82
2022-10-24T20:42:11.471Z,0.80
2022-10-24T20:44:37.825Z,0.80
2022-10-24T20:47:04.178Z,0.85
2022-10-24T20:49:31.907Z,0.93
2022-10-24T20:51:58.333Z,0.88
2022-10-24T20:54:24.767Z,0.82
2022-10-24T20:56:51.078Z,0.93
2022-10-24T20:59:17.472Z,0.90
2022-10-24T21:01:43.990Z,0.95
2022-10-24T21:04:10.764Z,0.80
2022-10-24T21:06:37.128Z,1.45
2022-10-24T21:09:05.816Z,0.77
2022-10-24T21:11:33.291Z,0.88
2022-10-24T21:14:00.836Z,1.15
2022-10-24T21:16:28.121Z,1.25
2022-10-24T21:18:54.946Z,0.80
2022-10-24T21:21:22.352Z,0.93
2022-10-24T21:23:53.202Z,1.52
2022-10-24T21:26:20.289Z,0.98
2022-10-24T21:28:46.745Z,1.20
2022-10-24T21:31:18.106Z,1.20
2022-10-24T21:33:45.002Z,0.98
2022-10-24T21:36:19.442Z,1.02
2022-10-24T21:38:46.907Z,1.00
2022-10-24T21:41:13.365Z,0.80
2022-10-24T21:43:41.382Z,2.00
2022-10-24T21:46:14.935Z,0.95
2022-10-24T21:48:43.009Z,0.75
2022-10-24T21:51:15.392Z,0.70
2022-10-24T21:53:47.500Z,1.05
2022-10-24T21:56:16.501Z,0.98
2022-10-24T21:58:54.477Z,1.00
2022-10-24T22:01:25.876Z,0.60
2022-10-24T22:03:56.933Z,0.88
2022-10-24T22:06:24.060Z,0.90
2022-10-24T22:08:51.733Z,0.95
2022-10-24T22:11:23.255Z,0.77
2022-10-24T22:16:23.071Z,0.80
2022-10-24T22:18:49.566Z,0.88
2022-10-24T22:21:27.680Z,0.70
2022-10-24T22:24:02.344Z,1.25
2022-10-24T22:26:28.876Z,0.90
2022-10-24T22:28:55.791Z,0.98
2022-10-24T22:31:23.563Z,1.27
2022-10-24T22:33:50.100Z,1.13
2022-10-24T22:36:42.578Z,1.33
2022-10-24T22:39:18.215Z,0.52
2022-10-24T22:41:45.596Z,1.05
2022-10-24T22:44:13.791Z,0.95
2022-10-24T22:46:45.943Z,1.13
2022-10-24T22:49:18.390Z,0.93
2022-10-24T22:51:44.954Z,1.20
2022-10-24T22:54:19.209Z,1.10
2022-10-24T22:56:46.145Z,1.20
2022-10-24T22:59:12.738Z,1.15
2022-10-24T23:01:58.986Z,1.58
2022-10-24T23:05:02.318Z,1.20
2022-10-24T23:07:57.563Z,1.35
2022-10-24T23:10:25.361Z,1.20
2022-10-24T23:12:52.415Z,1.85
2022-10-24T23:15:20.647Z,1.33
2022-10-24T23:17:48.241Z,1.25
2022-10-24T23:20:35.954Z,1.17
2022-10-24T23:23:16.498Z,1.30
2022-10-24T23:25:56.115Z,2.08
2022-10-24T23:28:46.805Z,1.25
2022-10-24T23:31:13.276Z,1.40
2022-10-24T23:33:39.932Z,1.35
2022-10-24T23:36:06.769Z,1.70
2022-10-24T23:38:33.483Z,1.20
2022-10-24T23:41:00.153Z,1.20
2022-10-24T23:43:27.202Z,1.58
2022-10-24T23:46:02.157Z,1.50
2022-10-24T23:48:46.934Z,1.30
2022-10-24T23:51:34.362Z,1.55
2022-10-24T23:54:00.955Z,1.60
2022-10-24T23:56:29.088Z,1.30
2022-10-24T23:58:56.018Z,1.73
